Time;durP1;ratioP1;P1;durP2;ratioP2;P2;SDS_P1;SDS_P2;PMS_P1;PMS_P2;Temp;Humidity;BMP_temperature;BMP_pressure;BME280_temperature;BME280_humidity;BME280_pressure;Samples;Min_cycle;Max_cycle;Signal;HPM_P1;HPM_P2
2021/08/08 00:01:27;;;;;;;0.10;0.10;;;;;;;21.93;56.82;99317.84;4762904;30;20065;-79
2021/08/08 00:03:54;;;;;;;0.10;0.10;;;;;;;21.92;56.35;99311.50;4780967;29;20054;-74
2021/08/08 00:06:19;;;;;;;0.10;0.10;;;;;;;21.89;56.49;99303.69;4784725;29;20039;-75
2021/08/08 00:08:45;;;;;;;0.10;0.10;;;;;;;21.89;56.73;99309.19;4790198;29;20042;-76
2021/08/08 00:11:11;;;;;;;0.10;0.10;;;;;;;21.85;56.79;99309.91;4769287;30;20091;-77
2021/08/08 00:13:37;;;;;;;0.10;0.10;;;;;;;21.81;57.55;99314.19;4773511;29;20588;-77
2021/08/08 00:16:03;;;;;;;0.10;0.10;;;;;;;21.73;57.45;99315.38;4770236;30;20055;-73
2021/08/08 00:18:29;;;;;;;0.10;0.10;;;;;;;21.69;57.31;99327.06;4789047;29;20477;-74
2021/08/08 00:20:55;;;;;;;0.05;0.05;;;;;;;21.66;57.23;99320.94;4763400;29;20051;-73
2021/08/08 00:23:20;;;;;;;0.10;0.10;;;;;;;21.64;57.20;99312.06;4776851;29;20137;-75
2021/08/08 00:25:48;;;;;;;0.10;0.10;;;;;;;21.60;57.49;99316.38;4780075;29;20047;-77
2021/08/08 00:28:14;;;;;;;0.10;0.10;;;;;;;21.61;57.85;99323.56;4787788;29;20066;-74
2021/08/08 00:30:39;;;;;;;0.10;0.10;;;;;;;21.61;57.53;99328.19;4774987;29;20515;-75
2021/08/08 00:33:05;;;;;;;0.10;0.10;;;;;;;21.59;57.42;99324.88;4787530;29;20075;-76
2021/08/08 00:35:36;;;;;;;0.10;0.10;;;;;;;21.62;56.94;99313.41;4755106;30;20423;-75
2021/08/08 00:38:02;;;;;;;0.10;0.10;;;;;;;21.60;56.80;99323.78;4777790;29;20055;-77
2021/08/08 00:40:30;;;;;;;0.10;0.10;;;;;;;21.64;57.33;99323.06;4768867;29;20052;-75
2021/08/08 00:42:55;;;;;;;0.10;0.10;;;;;;;21.65;56.84;99330.28;4785045;29;20520;-74
2021/08/08 00:45:22;;;;;;;0.10;0.10;;;;;;;21.65;56.64;99321.19;4763078;30;20058;-73
2021/08/08 00:47:56;;;;;;;0.00;0.00;;;;;;;21.62;56.41;99338.16;4753644;30;20048;-74
2021/08/08 00:50:29;;;;;;;0.10;0.10;;;;;;;21.64;56.77;99341.50;4757955;29;20150;-73
2021/08/08 00:52:54;;;;;;;0.10;0.10;;;;;;;21.63;56.85;99337.91;4768311;29;20644;-73
2021/08/08 00:55:22;;;;;;;0.00;0.00;;;;;;;21.61;56.52;99333.72;4783413;29;20138;-73
2021/08/08 00:57:51;;;;;;;0.10;0.10;;;;;;;21.61;56.80;99351.09;4753316;29;20163;-74
2021/08/08 01:00:16;;;;;;;0.00;0.00;;;;;;;21.60;56.44;99343.88;4782342;29;20118;-74
2021/08/08 01:02:47;;;;;;;0.10;0.10;;;;;;;21.61;56.62;99328.19;4757169;29;20146;-75
2021/08/08 01:05:18;;;;;;;0.10;0.10;;;;;;;21.60;56.64;99332.03;4751510;29;20058;-74
2021/08/08 01:07:55;;;;;;;0.10;0.10;;;;;;;21.58;56.39;99339.69;4763902;29;20058;-73
2021/08/08 01:10:21;;;;;;;0.10;0.10;;;;;;;21.60;56.61;99345.78;4761233;29;20054;-73
2021/08/08 01:12:49;;;;;;;0.10;0.10;;;;;;;21.59;56.92;99344.97;4770621;29;20050;-74
2021/08/08 01:15:15;;;;;;;0.10;0.10;;;;;;;21.61;56.33;99347.47;4774705;29;20055;-75
2021/08/08 01:17:43;;;;;;;0.10;0.10;;;;;;;21.59;56.13;99352.38;4751657;29;20050;-73
2021/08/08 01:20:11;;;;;;;0.10;0.10;;;;;;;21.60;56.38;99354.03;4755017;29;20535;-73
2021/08/08 01:22:51;;;;;;;0.05;0.05;;;;;;;21.64;56.36;99349.75;4753649;30;20717;-74
2021/08/08 01:25:17;;;;;;;0.10;0.10;;;;;;;21.60;56.16;99354.88;4755579;29;20059;-73
2021/08/08 01:27:43;;;;;;;0.10;0.10;;;;;;;21.63;55.96;99353.59;4738719;30;20352;-71
2021/08/08 01:30:10;;;;;;;0.10;0.10;;;;;;;21.63;55.91;99364.59;4728832;30;20044;-72
2021/08/08 01:32:37;;;;;;;0.10;0.10;;;;;;;21.63;55.75;99364.59;4771930;29;20039;-73
2021/08/08 01:35:07;;;;;;;0.10;0.10;;;;;;;21.66;55.42;99364.13;4738985;29;20058;-73
2021/08/08 01:37:33;;;;;;;0.10;0.10;;;;;;;21.63;55.93;99364.59;4760175;30;20056;-73
2021/08/08 01:40:07;;;;;;;0.10;0.10;;;;;;;21.58;56.54;99358.94;4738413;30;20055;-73
2021/08/08 01:42:36;;;;;;;0.10;0.10;;;;;;;21.56;56.85;99344.56;4781961;29;20502;-75
2021/08/08 01:45:03;;;;;;;0.10;0.10;;;;;;;21.50;57.17;99359.25;4768700;29;20086;-72
2021/08/08 01:47:32;;;;;;;0.10;0.10;;;;;;;21.43;56.93;99360.19;4749193;30;20102;-75
2021/08/08 01:50:05;;;;;;;0.10;0.10;;;;;;;21.41;57.63;99342.22;4752619;29;20405;-73
2021/08/08 01:52:34;;;;;;;0.10;0.10;;;;;;;21.40;58.37;99352.38;4733683;30;20475;-74
2021/08/08 01:55:00;;;;;;;0.10;0.10;;;;;;;21.41;58.34;99362.31;4760793;29;20059;-74
2021/08/08 01:57:34;;;;;;;0.10;0.10;;;;;;;21.37;58.85;99363.00;4751711;29;20052;-72
2021/08/08 02:00:20;;;;;;;0.10;0.10;;;;;;;21.26;59.12;99367.31;4755187;29;20051;-74
2021/08/08 02:02:51;;;;;;;0.10;0.10;;;;;;;21.26;59.11;99369.22;4759635;29;20133;-72
2021/08/08 02:05:22;;;;;;;0.00;0.00;;;;;;;21.21;59.65;99378.16;4772617;30;20079;-73
2021/08/08 02:07:49;;;;;;;0.10;0.10;;;;;;;21.22;59.18;99379.00;4752734;30;20434;-73
2021/08/08 02:10:16;;;;;;;0.10;0.10;;;;;;;21.15;59.39;99395.56;4768557;30;20478;-73
2021/08/08 02:12:43;;;;;;;0.10;0.10;;;;;;;21.11;59.72;99406.16;4757007;29;20129;-73
2021/08/08 02:15:09;;;;;;;0.00;0.00;;;;;;;21.13;58.49;99427.91;4755563;30;20052;-74
2021/08/08 02:17:44;;;;;;;0.10;0.10;;;;;;;21.08;58.98;99412.09;4752354;29;20106;-73
2021/08/08 02:20:15;;;;;;;0.08;0.08;;;;;;;21.08;59.61;99420.34;4756082;29;20529;-74
2021/08/08 02:22:42;;;;;;;0.00;0.00;;;;;;;21.00;59.54;99433.53;4769128;30;20050;-74
2021/08/08 02:25:11;;;;;;;0.10;0.10;;;;;;;20.88;60.12;99439.78;4764096;30;20051;-74
2021/08/08 02:27:39;;;;;;;0.00;0.00;;;;;;;20.84;61.32;99452.28;4765302;30;20154;-73
2021/08/08 02:30:17;;;;;;;0.10;0.10;;;;;;;20.63;62.72;99466.38;4754470;29;20149;-74
2021/08/08 02:32:43;;;;;;;0.10;0.10;;;;;;;20.56;62.78;99460.06;4754888;30;20490;-73
2021/08/08 02:35:09;;;;;;;0.10;0.10;;;;;;;20.43;64.29;99464.53;4744023;30;20151;-74
2021/08/08 02:37:41;;;;;;;0.10;0.10;;;;;;;20.40;64.04;99470.50;4754966;29;20075;-74
2021/08/08 02:40:09;;;;;;;0.00;0.00;;;;;;;20.40;63.78;99465.00;4777111;29;20088;-72
2021/08/08 02:42:36;;;;;;;0.10;0.10;;;;;;;20.41;63.98;99477.66;4766510;29;20042;-73
2021/08/08 02:45:03;;;;;;;0.10;0.10;;;;;;;20.44;64.14;99465.41;4776091;29;20071;-72
2021/08/08 02:47:30;;;;;;;0.10;0.10;;;;;;;20.49;64.23;99454.59;4770699;29;20536;-73
2021/08/08 02:49:57;;;;;;;0.10;0.10;;;;;;;20.48;64.82;99456.50;4766263;29;20047;-74
2021/08/08 02:52:27;;;;;;;0.10;0.10;;;;;;;20.45;65.34;99445.94;4759059;29;20104;-73
2021/08/08 02:54:55;;;;;;;0.10;0.10;;;;;;;20.47;63.92;99437.47;4769783;29;20507;-75
2021/08/08 02:57:20;;;;;;;0.10;0.10;;;;;;;20.54;63.41;99434.72;4765344;29;20063;-74
2021/08/08 02:59:49;;;;;;;0.10;0.10;;;;;;;20.60;63.36;99425.59;4761118;29;20071;-74
2021/08/08 03:02:15;;;;;;;0.10;0.10;;;;;;;20.64;62.98;99415.84;4756257;29;20083;-75
2021/08/08 03:04:41;;;;;;;0.10;0.10;;;;;;;20.68;65.48;99406.09;4774401;29;20051;-75
2021/08/08 03:07:09;;;;;;;0.10;0.10;;;;;;;20.63;68.01;99403.19;4735556;29;20480;-75
2021/08/08 03:09:35;;;;;;;0.10;0.10;;;;;;;20.57;68.20;99393.09;4737050;29;20174;-74
2021/08/08 03:12:01;;;;;;;0.10;0.10;;;;;;;20.56;69.74;99385.91;4792512;29;20077;-74
2021/08/08 03:14:32;;;;;;;0.10;0.10;;;;;;;20.51;70.99;99382.97;4787832;29;20047;-73
2021/08/08 03:16:58;;;;;;;0.10;0.10;;;;;;;20.48;71.69;99385.09;4765545;29;20066;-74
2021/08/08 03:19:26;;;;;;;0.10;0.10;;;;;;;20.42;69.06;99369.50;4771518;29;20058;-73
2021/08/08 03:21:54;;;;;;;0.10;0.10;;;;;;;20.38;70.14;99372.91;4748465;29;20069;-73
2021/08/08 03:24:19;;;;;;;0.10;0.10;;;;;;;20.41;69.16;99378.81;4753799;29;20506;-73
2021/08/08 03:26:45;;;;;;;0.10;0.10;;;;;;;20.42;69.72;99380.47;4758537;29;20536;-73
2021/08/08 03:29:12;;;;;;;0.10;0.10;;;;;;;20.17;71.06;99385.06;4765781;29;20149;-73
2021/08/08 03:31:42;;;;;;;0.10;0.10;;;;;;;19.90;72.50;99382.47;4761081;29;20546;-72
2021/08/08 03:34:08;;;;;;;0.10;0.10;;;;;;;19.77;72.12;99398.97;4753575;29;20051;-72
2021/08/08 03:36:34;;;;;;;0.00;0.00;;;;;;;19.65;72.68;99395.25;4778591;29;20572;-74
2021/08/08 03:39:01;;;;;;;0.10;0.10;;;;;;;19.69;72.65;99412.94;4744500;30;20055;-75
2021/08/08 03:41:29;;;;;;;0.10;0.10;;;;;;;19.65;72.13;99419.94;4767525;29;20043;-73
2021/08/08 03:43:55;;;;;;;0.10;0.10;;;;;;;19.69;72.56;99434.88;4764575;29;20043;-77
2021/08/08 03:46:21;;;;;;;0.10;0.10;;;;;;;19.69;71.08;99429.41;4762645;29;20119;-74
2021/08/08 03:48:46;;;;;;;0.10;0.10;;;;;;;19.69;70.96;99423.91;4786096;29;20503;-73
2021/08/08 03:51:12;;;;;;;0.10;0.10;;;;;;;19.76;71.12;99457.66;4761120;29;20039;-73
2021/08/08 03:53:39;;;;;;;0.10;0.10;;;;;;;19.73;70.08;99469.06;4733626;29;20050;-74
2021/08/08 03:56:05;;;;;;;0.10;0.10;;;;;;;19.87;69.37;99458.88;4780100;29;20048;-73
2021/08/08 03:58:31;;;;;;;0.10;0.10;;;;;;;19.99;68.28;99449.75;4775909;29;20050;-73
2021/08/08 04:01:01;;;;;;;0.10;0.10;;;;;;;20.07;67.38;99453.31;4753821;30;20085;-72
2021/08/08 04:03:31;;;;;;;0.10;0.10;;;;;;;20.16;67.66;99441.88;4759329;29;20139;-74
2021/08/08 04:05:57;;;;;;;0.10;0.10;;;;;;;20.22;70.56;99434.69;4761084;30;20132;-75
2021/08/08 04:08:23;;;;;;;0.10;0.10;;;;;;;20.23;71.10;99439.09;4785608;29;20038;-74
2021/08/08 04:10:52;;;;;;;0.10;0.10;;;;;;;20.25;72.13;99434.22;4749393;30;20575;-74
2021/08/08 04:13:18;;;;;;;0.10;0.10;;;;;;;20.27;71.61;99443.09;4752929;30;20069;-73
2021/08/08 04:15:44;;;;;;;0.10;0.10;;;;;;;20.19;71.72;99446.09;4781415;29;20538;-74
2021/08/08 04:18:12;;;;;;;0.10;0.10;;;;;;;20.17;72.79;99443.56;4752780;30;20619;-74
2021/08/08 04:20:40;;;;;;;0.10;0.10;;;;;;;20.05;71.61;99438.97;4767053;30;20064;-74
2021/08/08 04:23:07;;;;;;;0.10;0.10;;;;;;;20.07;71.87;99436.84;4739093;30;20149;-72
2021/08/08 04:25:34;;;;;;;0.10;0.10;;;;;;;20.15;72.81;99439.38;4751669;30;20051;-74
2021/08/08 04:28:00;;;;;;;0.10;0.10;;;;;;;20.25;71.31;99428.72;4769365;30;20150;-73
2021/08/08 04:30:27;;;;;;;0.10;0.10;;;;;;;20.38;70.96;99434.16;4766682;29;20100;-73
2021/08/08 04:32:53;;;;;;;0.10;0.10;;;;;;;20.51;71.07;99449.72;4768966;30;20092;-74
2021/08/08 04:35:19;;;;;;;0.10;0.10;;;;;;;20.58;70.46;99449.69;4762670;29;20055;-77
2021/08/08 04:37:47;;;;;;;0.10;0.10;;;;;;;20.66;71.02;99432.97;4755072;29;20521;-75
2021/08/08 04:40:13;;;;;;;0.10;0.10;;;;;;;20.83;70.32;99439.59;4770324;29;20047;-74
2021/08/08 04:42:39;;;;;;;0.10;0.10;;;;;;;20.91;71.01;99433.84;4779739;29;20125;-75
2021/08/08 04:45:05;;;;;;;0.10;0.10;;;;;;;20.98;70.45;99435.66;4771892;29;20070;-75
2021/08/08 04:47:31;;;;;;;0.10;0.10;;;;;;;21.06;70.56;99457.38;4755203;30;20134;-76
2021/08/08 04:49:57;;;;;;;0.15;0.15;;;;;;;21.13;67.48;99449.91;4757456;30;20486;-75
2021/08/08 04:52:24;;;;;;;0.10;0.10;;;;;;;21.15;68.26;99445.03;4747340;30;20131;-74
2021/08/08 04:54:50;;;;;;;0.10;0.10;;;;;;;21.20;69.35;99447.94;4751158;30;20047;-75
2021/08/08 04:57:16;;;;;;;0.10;0.10;;;;;;;21.19;71.43;99455.34;4767183;30;20061;-75
2021/08/08 04:59:42;;;;;;;0.10;0.10;;;;;;;21.07;71.00;99470.91;4750079;30;20506;-74
2021/08/08 05:02:08;;;;;;;0.10;0.10;;;;;;;20.75;71.51;99477.47;4761611;30;20051;-75
2021/08/08 05:04:34;;;;;;;0.10;0.10;;;;;;;20.72;72.38;99473.28;4771149;29;20050;-75
2021/08/08 05:07:00;;;;;;;0.10;0.10;;;;;;;20.76;71.77;99485.50;4782182;29;20048;-75
2021/08/08 05:09:26;;;;;;;0.10;0.10;;;;;;;20.71;71.55;99488.06;4784687;29;20043;-77
2021/08/08 05:11:52;;;;;;;0.20;0.20;;;;;;;20.81;71.02;99471.94;4769786;30;20050;-74
2021/08/08 05:14:18;;;;;;;0.20;0.20;;;;;;;21.25;69.71;99467.38;4769499;30;20384;-73
2021/08/08 05:16:44;;;;;;;0.30;0.30;;;;;;;21.75;69.13;99486.56;4767660;30;20050;-75
2021/08/08 05:19:10;;;;;;;0.30;0.30;;;;;;;22.28;66.95;99494.25;4753905;30;20055;-74
2021/08/08 05:21:36;;;;;;;0.20;0.20;;;;;;;22.19;65.70;99481.00;4768994;30;20049;-75
2021/08/08 05:24:02;;;;;;;0.20;0.20;;;;;;;22.15;64.84;99488.91;4753648;29;20055;-75
2021/08/08 05:26:28;;;;;;;0.17;0.17;;;;;;;21.90;64.21;99498.06;4774238;29;20051;-74
2021/08/08 05:28:55;;;;;;;0.10;0.10;;;;;;;21.84;64.77;99504.47;4748849;29;20501;-78
2021/08/08 05:31:21;;;;;;;0.13;0.13;;;;;;;21.71;66.25;99503.78;4732435;30;20043;-77
2021/08/08 05:33:47;;;;;;;0.10;0.10;;;;;;;21.76;65.80;99510.28;4785024;29;20055;-79
2021/08/08 05:36:12;;;;;;;0.10;0.10;;;;;;;21.80;66.48;99507.91;4772302;30;20055;-80
2021/08/08 05:38:41;;;;;;;0.10;0.10;;;;;;;21.70;66.37;99513.94;4769865;30;20043;-79
2021/08/08 05:41:12;;;;;;;0.10;0.10;;;;;;;21.71;67.27;99510.09;4773758;29;20067;-75
2021/08/08 05:43:39;;;;;;;0.10;0.10;;;;;;;21.60;67.72;99513.59;4782238;29;20154;-76
2021/08/08 05:46:05;;;;;;;0.10;0.10;;;;;;;21.52;67.33;99511.16;4766294;30;20054;-77
2021/08/08 05:48:31;;;;;;;0.10;0.10;;;;;;;21.54;67.36;99509.88;4774098;29;20075;-78
2021/08/08 05:51:15;;;;;;;0.10;0.10;;;;;;;21.50;67.08;99513.28;4774596;29;20087;-76
2021/08/08 05:53:42;;;;;;;0.10;0.10;;;;;;;21.37;67.74;99509.59;4753757;29;20077;-77
2021/08/08 05:56:08;;;;;;;0.10;0.10;;;;;;;21.42;67.78;99507.00;4739915;29;20126;-77
2021/08/08 05:58:38;;;;;;;0.10;0.10;;;;;;;21.40;67.24;99509.16;4754924;29;20067;-76
2021/08/08 06:01:04;;;;;;;0.10;0.10;;;;;;;21.39;67.41;99510.22;4754790;29;20400;-78
2021/08/08 06:03:30;;;;;;;0.10;0.10;;;;;;;;;;4727249;29;20048;-76
2021/08/08 06:05:57;;;;;;;0.10;0.10;;;;;;;21.39;67.00;99523.97;4738958;29;20243;-80
2021/08/08 06:08:24;;;;;;;0.10;0.10;;;;;;;21.31;67.22;99526.94;4757979;29;20054;-80
2021/08/08 06:11:06;;;;;;;0.10;0.10;;;;;;;21.27;67.40;99522.97;4754854;29;20052;-79
2021/08/08 06:13:35;;;;;;;0.10;0.10;;;;;;;21.22;68.32;99528.31;4750296;29;20079;-79
2021/08/08 06:16:01;;;;;;;0.10;0.10;;;;;;;21.19;69.14;99531.50;4736193;30;20071;-78
2021/08/08 06:18:27;;;;;;;0.10;0.10;;;;;;;21.11;68.62;99532.63;4749782;30;20387;-83
2021/08/08 06:20:53;;;;;;;0.10;0.10;;;;;;;21.08;68.70;99543.22;4755436;29;20040;-76
2021/08/08 06:23:27;;;;;;;0.10;0.10;;;;;;;21.03;70.15;99556.78;4770843;29;20414;-76
2021/08/08 06:25:53;;;;;;;0.10;0.10;;;;;;;21.01;71.45;99568.00;4756504;29;20178;-80
2021/08/08 06:28:19;;;;;;;0.15;0.15;;;;;;;21.06;71.78;99553.56;4773728;29;20091;-77
2021/08/08 06:30:45;;;;;;;0.10;0.10;;;;;;;20.94;72.79;99575.44;4774341;29;20534;-78
2021/08/08 06:33:14;;;;;;;0.10;0.10;;;;;;;21.02;73.24;99577.06;4755798;29;20098;-78
2021/08/08 06:35:41;;;;;;;0.10;0.10;;;;;;;20.92;73.59;99578.41;4755004;30;20063;-77
2021/08/08 06:38:08;;;;;;;0.10;0.10;;;;;;;20.93;73.87;99580.09;4762682;30;20040;-77
2021/08/08 06:40:37;;;;;;;0.10;0.10;;;;;;;21.03;73.44;99579.63;4770509;29;20532;-80
2021/08/08 06:43:04;;;;;;;0.10;0.10;;;;;;;21.14;73.07;99580.81;4756972;30;20131;-80
2021/08/08 06:45:35;;;;;;;0.10;0.10;;;;;;;21.33;71.95;99588.09;4727024;30;20051;-78
2021/08/08 06:48:02;;;;;;;0.20;0.20;;;;;;;21.40;71.22;99591.66;4741337;29;20165;-79
2021/08/08 06:50:32;;;;;;;0.10;0.10;;;;;;;21.47;70.56;99585.28;4761416;29;20118;-80
2021/08/08 06:52:59;;;;;;;0.15;0.15;;;;;;;21.47;70.50;99586.09;4754766;30;20586;-81
2021/08/08 06:55:26;;;;;;;0.20;0.20;;;;;;;21.52;70.47;99590.94;4749372;29;20065;-80
2021/08/08 06:57:52;;;;;;;0.20;0.20;;;;;;;21.72;70.68;99583.38;4756160;30;20126;-79
2021/08/08 07:00:19;;;;;;;0.20;0.20;;;;;;;21.99;69.14;99589.44;4748669;30;20510;-80
2021/08/08 07:02:45;;;;;;;0.10;0.10;;;;;;;22.18;67.81;99573.81;4741456;30;20083;-82
2021/08/08 07:05:12;;;;;;;0.15;0.15;;;;;;;22.22;67.80;99565.94;4753835;29;20035;-80
2021/08/08 07:07:38;;;;;;;0.10;0.10;;;;;;;22.26;67.26;99570.75;4741533;30;20044;-83
2021/08/08 07:10:05;;;;;;;0.10;0.10;;;;;;;22.03;68.05;99576.06;4742859;30;20086;-81
2021/08/08 07:12:32;;;;;;;0.20;0.20;;;;;;;21.92;68.77;99572.97;4767426;29;20048;-77
2021/08/08 07:14:58;;;;;;;0.20;0.20;;;;;;;22.00;68.82;99585.63;4754742;29;20043;-81
2021/08/08 07:17:25;;;;;;;0.20;0.20;;;;;;;22.04;68.77;99586.00;4727209;29;20040;-80
2021/08/08 07:19:51;;;;;;;0.20;0.20;;;;;;;22.19;68.65;99578.25;4736265;30;20046;-79
2021/08/08 07:22:17;;;;;;;0.10;0.10;;;;;;;22.52;67.66;99588.03;4772663;29;20570;-79
2021/08/08 07:24:44;;;;;;;0.20;0.20;;;;;;;22.89;66.84;99577.81;4768206;29;20039;-80
2021/08/08 07:27:11;;;;;;;0.20;0.20;;;;;;;23.31;65.81;99575.94;4752710;30;20089;-78
2021/08/08 07:29:38;;;;;;;0.20;0.20;;;;;;;23.51;65.78;99583.03;4753939;29;20426;-81
2021/08/08 07:32:07;;;;;;;0.20;0.20;;;;;;;23.58;65.52;99576.34;4726890;30;20051;-81
2021/08/08 07:34:33;;;;;;;0.17;0.17;;;;;;;23.33;66.71;99579.31;4753738;30;20055;-78
2021/08/08 07:36:59;;;;;;;0.20;0.20;;;;;;;23.29;67.74;99577.22;4746443;30;20055;-77
2021/08/08 07:39:25;;;;;;;0.10;0.10;;;;;;;23.31;68.45;99586.97;4762003;30;20071;-78
2021/08/08 07:41:51;;;;;;;0.10;0.10;;;;;;;23.33;68.51;99582.06;4761633;29;20471;-79
2021/08/08 07:44:17;;;;;;;0.20;0.20;;;;;;;23.20;69.34;99585.00;4753134;29;20055;-78
2021/08/08 07:46:44;;;;;;;0.15;0.15;;;;;;;23.17;69.99;99596.50;4769136;29;20048;-79
2021/08/08 07:49:10;;;;;;;0.20;0.20;;;;;;;23.24;69.80;99601.94;4749794;29;20052;-80
2021/08/08 07:51:36;;;;;;;0.10;0.10;;;;;;;23.23;70.45;99601.09;4755532;30;20138;-78
2021/08/08 07:54:02;;;;;;;0.10;0.10;;;;;;;23.21;71.08;99592.19;4763728;29;20043;-80
2021/08/08 07:56:31;;;;;;;0.10;0.10;;;;;;;23.00;72.19;99601.00;4774437;29;20054;-78
2021/08/08 07:58:58;;;;;;;0.10;0.10;;;;;;;23.03;71.71;99608.81;4761877;30;20294;-78
2021/08/08 08:01:24;;;;;;;0.10;0.10;;;;;;;22.99;71.75;99615.88;4763323;29;20101;-81
2021/08/08 08:03:50;;;;;;;0.10;0.10;;;;;;;22.82;72.88;99616.50;4761157;30;20055;-81
2021/08/08 08:06:16;;;;;;;0.10;0.10;;;;;;;22.77;72.94;99629.28;4764244;30;20052;-79
2021/08/08 08:08:43;;;;;;;0.10;0.10;;;;;;;22.70;73.96;99634.84;4769683;29;20046;-81
2021/08/08 08:11:11;;;;;;;0.10;0.10;;;;;;;22.62;73.72;99635.19;4750842;29;20181;-79
2021/08/08 08:13:37;;;;;;;0.13;0.13;;;;;;;22.81;73.25;99644.28;4749133;30;20055;-78
2021/08/08 08:16:03;;;;;;;0.13;0.13;;;;;;;22.86;73.35;99638.94;4777657;29;20047;-79
2021/08/08 08:18:29;;;;;;;0.10;0.10;;;;;;;22.87;73.61;99635.91;4763274;30;20043;-79
2021/08/08 08:20:55;;;;;;;0.10;0.10;;;;;;;22.79;73.73;99633.50;4757732;30;20072;-79
2021/08/08 08:23:21;;;;;;;0.10;0.10;;;;;;;22.99;73.00;99630.50;4745047;29;20566;-77
2021/08/08 08:25:47;;;;;;;0.10;0.10;;;;;;;23.18;72.71;99625.78;4761700;30;21047;-81
2021/08/08 08:28:13;;;;;;;0.20;0.20;;;;;;;23.30;72.20;99623.06;4760975;30;20035;-79
2021/08/08 08:30:39;;;;;;;0.20;0.20;;;;;;;23.51;71.97;99625.28;4746747;30;20514;-79
2021/08/08 08:33:06;;;;;;;0.20;0.20;;;;;;;23.78;71.11;99625.72;4775786;29;20052;-79
2021/08/08 08:35:33;;;;;;;0.20;0.20;;;;;;;23.98;70.71;99630.06;4776098;29;20051;-82
2021/08/08 08:37:59;;;;;;;0.20;0.20;;;;;;;24.08;70.18;99624.78;4776685;29;20093;-78
2021/08/08 08:40:25;;;;;;;0.10;0.10;;;;;;;24.08;69.74;99629.47;4758827;29;20440;-82
2021/08/08 08:42:54;;;;;;;0.10;0.10;;;;;;;24.01;69.67;99635.09;4760444;29;20105;-80
2021/08/08 08:45:21;;;;;;;0.10;0.10;;;;;;;23.79;70.24;99632.91;4747820;30;20054;-79
2021/08/08 08:47:48;;;;;;;0.13;0.13;;;;;;;23.69;70.48;99627.13;4765853;29;20127;-81
2021/08/08 08:50:15;;;;;;;0.20;0.20;;;;;;;23.92;69.32;99633.78;4762760;29;20489;-82
2021/08/08 08:52:42;;;;;;;0.10;0.10;;;;;;;24.04;69.83;99624.41;4727208;29;20136;-83
2021/08/08 08:55:09;;;;;;;0.20;0.20;;;;;;;23.80;68.47;99633.75;4746579;30;20185;-82
2021/08/08 08:57:40;;;;;;;0.10;0.10;;;;;;;23.78;68.36;99631.25;4744794;29;20201;-83
2021/08/08 09:00:08;;;;;;;0.10;0.10;;;;;;;23.79;68.66;99627.41;4756766;29;20047;-81
2021/08/08 09:02:39;;;;;;;0.20;0.20;;;;;;;24.04;67.68;99629.09;4757119;29;20064;-80
2021/08/08 09:05:06;;;;;;;0.15;0.15;;;;;;;23.79;66.83;99632.91;4746778;29;20043;-80
2021/08/08 09:07:32;;;;;;;0.20;0.20;;;;;;;23.93;66.97;99619.72;4732027;29;20051;-81
2021/08/08 09:09:59;;;;;;;0.10;0.10;;;;;;;23.74;67.39;99629.22;4756484;29;20077;-83
2021/08/08 09:12:30;;;;;;;0.10;0.10;;;;;;;23.52;66.33;99617.84;4759097;29;20066;-81
2021/08/08 09:15:03;;;;;;;0.10;0.10;;;;;;;23.46;67.50;99638.94;4752114;29;20117;-85
2021/08/08 09:17:38;;;;;;;0.10;0.10;;;;;;;23.55;68.11;99633.94;4752518;29;20049;-82
2021/08/08 09:20:10;;;;;;;0.10;0.10;;;;;;;23.50;68.24;99639.31;4761097;29;20047;-83
2021/08/08 09:22:40;;;;;;;0.10;0.10;;;;;;;23.31;68.68;99642.13;4758688;29;20091;-79
2021/08/08 09:25:19;;;;;;;0.20;0.20;;;;;;;23.35;69.93;99648.88;4757607;30;20085;-81
2021/08/08 09:27:45;;;;;;;0.10;0.10;;;;;;;23.51;68.81;99646.50;4745739;30;20043;-81
2021/08/08 09:30:19;;;;;;;0.10;0.10;;;;;;;23.63;67.86;99636.34;4746778;30;20575;-84
2021/08/08 09:32:47;;;;;;;0.20;0.20;;;;;;;23.78;65.86;99647.81;4754859;30;20602;-80
2021/08/08 09:35:21;;;;;;;0.20;0.20;;;;;;;24.02;67.32;99645.06;4769671;29;20055;-82
2021/08/08 09:38:02;;;;;;;0.20;0.20;;;;;;;24.06;65.29;99649.06;4768567;29;20540;-78
2021/08/08 09:41:22;;;;;;;0.20;0.20;;;;;;;23.75;64.32;99648.28;4752581;29;20521;-81
2021/08/08 09:43:48;;;;;;;0.20;0.20;;;;;;;23.47;65.42;99659.09;4767985;29;20051;-79
2021/08/08 09:46:18;;;;;;;0.20;0.20;;;;;;;23.45;66.04;99653.81;4768959;29;20079;-79
2021/08/08 09:48:46;;;;;;;;;;;;;;;23.54;65.25;99651.56;4755422;29;20052;-80
2021/08/08 09:51:13;;;;;;;0.20;0.20;;;;;;;23.61;65.11;99641.25;4769675;29;19926;-80
2021/08/08 09:53:39;;;;;;;0.10;0.10;;;;;;;23.77;64.59;99648.91;4755567;29;20044;-79
2021/08/08 09:56:18;;;;;;;0.10;0.10;;;;;;;23.57;63.60;99651.09;4755520;29;20149;-79
2021/08/08 09:58:48;;;;;;;0.10;0.10;;;;;;;23.47;63.56;99646.13;4761465;29;20567;-80
2021/08/08 10:01:14;;;;;;;0.10;0.10;;;;;;;23.33;63.90;99651.03;4752775;29;20094;-80
2021/08/08 10:03:40;;;;;;;0.10;0.10;;;;;;;23.28;64.65;99658.31;4735750;29;20089;-81
2021/08/08 10:06:10;;;;;;;0.10;0.10;;;;;;;23.24;65.10;99657.09;4760034;29;20052;-81
2021/08/08 10:08:36;;;;;;;0.10;0.10;;;;;;;23.28;65.41;99655.56;4737299;29;20079;-80
2021/08/08 10:11:02;;;;;;;0.10;0.10;;;;;;;23.21;65.57;99652.88;4752142;29;20390;-81
2021/08/08 10:13:46;;;;;;;0.10;0.10;;;;;;;23.24;65.05;99657.09;4764278;29;20185;-80
2021/08/08 10:16:14;;;;;;;0.10;0.10;;;;;;;23.12;65.65;99670.84;4749543;29;20099;-82
2021/08/08 10:18:44;;;;;;;0.20;0.20;;;;;;;23.01;65.50;99682.66;4771432;29;20526;-80
2021/08/08 10:21:10;;;;;;;0.10;0.10;;;;;;;23.14;65.50;99668.69;4747602;30;20051;-79
2021/08/08 10:23:37;;;;;;;0.10;0.10;;;;;;;23.27;64.89;99674.03;4770482;29;20162;-80
2021/08/08 10:26:05;;;;;;;0.20;0.20;;;;;;;23.41;64.52;99673.84;4759776;30;20055;-79
2021/08/08 10:28:32;;;;;;;0.20;0.20;;;;;;;23.40;64.74;99677.66;4771335;29;20047;-79
2021/08/08 10:30:59;;;;;;;0.10;0.10;;;;;;;23.58;64.21;99675.72;4769682;29;20194;-79
2021/08/08 10:33:25;;;;;;;0.13;0.13;;;;;;;23.72;64.37;99676.34;4721580;30;20135;-77
2021/08/08 10:35:54;;;;;;;0.20;0.20;;;;;;;23.91;63.41;99673.50;4749014;30;20126;-76
2021/08/08 10:38:21;;;;;;;0.20;0.20;;;;;;;23.81;64.49;99672.19;4768238;29;20051;-77
2021/08/08 10:40:47;;;;;;;0.20;0.20;;;;;;;23.87;64.83;99672.31;4754169;29;20162;-79
2021/08/08 10:43:25;;;;;;;0.20;0.20;;;;;;;24.11;65.11;99667.66;4767974;29;20463;-79
2021/08/08 10:46:02;;;;;;;0.20;0.20;;;;;;;24.33;64.48;99665.13;4727289;29;20047;-79
2021/08/08 10:48:33;;;;;;;0.20;0.20;;;;;;;24.48;63.29;99660.00;4754553;29;20195;-79
2021/08/08 10:50:59;;;;;;;0.10;0.10;;;;;;;24.59;62.39;99672.13;4735874;29;20054;-78
2021/08/08 10:53:30;;;;;;;0.20;0.20;;;;;;;24.51;61.82;99673.34;4757728;29;20474;-78
2021/08/08 10:56:10;;;;;;;0.10;0.10;;;;;;;24.36;61.25;99686.78;4733884;29;20050;-79
2021/08/08 10:58:37;;;;;;;0.10;0.10;;;;;;;23.95;62.50;99688.53;4772538;29;20046;-76
2021/08/08 11:01:19;;;;;;;0.10;0.10;;;;;;;24.09;61.00;99686.38;4766675;29;20043;-79
2021/08/08 11:03:52;;;;;;;0.10;0.10;;;;;;;24.06;61.05;99684.97;4731258;29;20105;-79
2021/08/08 11:06:26;;;;;;;0.15;0.15;;;;;;;23.99;61.79;99692.50;4738442;30;20371;-79
2021/08/08 11:08:56;;;;;;;0.10;0.10;;;;;;;23.60;61.21;99680.97;4767206;29;20051;-78
2021/08/08 11:11:37;;;;;;;0.10;0.10;;;;;;;23.51;62.04;99679.63;4753439;30;20054;-76
2021/08/08 11:14:15;;;;;;;0.10;0.10;;;;;;;23.40;63.05;99677.66;4769030;29;20382;-78
2021/08/08 11:16:43;;;;;;;0.10;0.10;;;;;;;23.24;63.13;99685.53;4766100;29;20058;-76
2021/08/08 11:19:10;;;;;;;0.10;0.10;;;;;;;23.15;63.62;99692.47;4752855;29;20394;-77
2021/08/08 11:21:36;;;;;;;0.10;0.10;;;;;;;23.15;63.41;99699.91;4751469;29;20035;-77
2021/08/08 11:24:09;;;;;;;0.10;0.10;;;;;;;23.08;64.31;99697.22;4771284;29;20145;-76
2021/08/08 11:26:35;;;;;;;0.10;0.10;;;;;;;23.03;64.48;99699.81;4773554;29;20457;-75
2021/08/08 11:29:04;;;;;;;0.10;0.10;;;;;;;22.95;64.95;99700.13;4758285;29;20071;-76
2021/08/08 11:31:35;;;;;;;0.10;0.10;;;;;;;22.85;65.30;99700.63;4775284;29;20285;-76
2021/08/08 11:34:05;;;;;;;0.10;0.10;;;;;;;22.77;65.91;99707.28;4772736;29;20063;-77
2021/08/08 11:36:36;;;;;;;0.10;0.10;;;;;;;22.62;66.01;99704.06;4735903;29;20239;-76
2021/08/08 11:39:05;;;;;;;0.10;0.10;;;;;;;22.55;66.31;99706.91;4739374;30;20524;-77